sensor_id;sensor_type;location;lat;lon;timestamp;P1;durP1;ratioP1;P2;durP2;ratioP2
3278;SDS011;1651;50.940;6.888;2022-08-01T00:00:23;1.67;;;1.40;;
3278;SDS011;1651;50.940;6.888;2022-08-01T00:02:49;1.93;;;1.80;;
3278;SDS011;1651;50.940;6.888;2022-08-01T00:05:15;1.50;;;1.40;;
3278;SDS011;1651;50.940;6.888;2022-08-01T00:07:41;2.60;;;1.43;;
3278;SDS011;1651;50.940;6.888;2022-08-01T00:10:09;2.40;;;1.60;;
3278;SDS011;1651;50.940;6.888;2022-08-01T00:12:35;2.83;;;1.50;;
3278;SDS011;1651;50.940;6.888;2022-08-01T00:15:01;1.50;;;1.13;;
3278;SDS011;1651;50.940;6.888;2022-08-01T00:17:27;2.20;;;1.80;;
3278;SDS011;1651;50.940;6.888;2022-08-01T00:19:53;2.00;;;1.40;;
3278;SDS011;1651;50.940;6.888;2022-08-01T00:22:19;1.83;;;1.50;;
3278;SDS011;1651;50.940;6.888;2022-08-01T00:24:45;2.43;;;1.50;;
3278;SDS011;1651;50.940;6.888;2022-08-01T00:27:11;3.40;;;1.67;;
3278;SDS011;1651;50.940;6.888;2022-08-01T00:29:37;1.77;;;1.50;;
3278;SDS011;1651;50.940;6.888;2022-08-01T00:32:03;1.80;;;1.40;;
3278;SDS011;1651;50.940;6.888;2022-08-01T00:34:29;1.93;;;1.57;;
3278;SDS011;1651;50.940;6.888;2022-08-01T00:36:55;2.40;;;1.33;;
3278;SDS011;1651;50.940;6.888;2022-08-01T00:39:21;2.77;;;2.00;;
3278;SDS011;1651;50.940;6.888;2022-08-01T00:41:47;1.60;;;1.50;;
3278;SDS011;1651;50.940;6.888;2022-08-01T00:44:13;7.40;;;1.77;;
3278;SDS011;1651;50.940;6.888;2022-08-01T00:46:39;1.97;;;1.43;;
3278;SDS011;1651;50.940;6.888;2022-08-01T00:49:05;2.10;;;1.37;;
3278;SDS011;1651;50.940;6.888;2022-08-01T00:51:31;1.53;;;1.40;;
3278;SDS011;1651;50.940;6.888;2022-08-01T00:53:58;1.60;;;1.50;;
3278;SDS011;1651;50.940;6.888;2022-08-01T00:56:26;1.53;;;1.43;;
3278;SDS011;1651;50.940;6.888;2022-08-01T00:58:53;2.17;;;1.70;;
3278;SDS011;1651;50.940;6.888;2022-08-01T01:01:19;3.40;;;1.90;;
3278;SDS011;1651;50.940;6.888;2022-08-01T01:03:47;2.53;;;1.90;;
3278;SDS011;1651;50.940;6.888;2022-08-01T01:06:28;2.00;;;1.80;;
3278;SDS011;1651;50.940;6.888;2022-08-01T01:11:29;1.70;;;1.60;;
3278;SDS011;1651;50.940;6.888;2022-08-01T01:13:59;2.20;;;1.90;;
3278;SDS011;1651;50.940;6.888;2022-08-01T01:16:26;2.97;;;2.37;;
3278;SDS011;1651;50.940;6.888;2022-08-01T01:18:54;3.13;;;1.70;;
3278;SDS011;1651;50.940;6.888;2022-08-01T01:29:09;3.87;;;2.20;;
3278;SDS011;1651;50.940;6.888;2022-08-01T01:31:41;4.83;;;1.90;;
3278;SDS011;1651;50.940;6.888;2022-08-01T01:34:08;3.83;;;2.30;;
3278;SDS011;1651;50.940;6.888;2022-08-01T01:36:35;2.40;;;2.20;;
3278;SDS011;1651;50.940;6.888;2022-08-01T01:39:01;3.20;;;2.10;;
3278;SDS011;1651;50.940;6.888;2022-08-01T01:41:27;3.70;;;2.33;;
3278;SDS011;1651;50.940;6.888;2022-08-01T01:43:55;3.53;;;2.27;;
3278;SDS011;1651;50.940;6.888;2022-08-01T01:46:23;2.60;;;2.10;;
3278;SDS011;1651;50.940;6.888;2022-08-01T01:48:51;4.63;;;2.70;;
3278;SDS011;1651;50.940;6.888;2022-08-01T01:51:20;2.67;;;2.17;;
3278;SDS011;1651;50.940;6.888;2022-08-01T01:53:47;2.20;;;2.00;;
3278;SDS011;1651;50.940;6.888;2022-08-01T01:56:14;5.27;;;2.13;;
3278;SDS011;1651;50.940;6.888;2022-08-01T01:58:41;3.13;;;2.27;;
3278;SDS011;1651;50.940;6.888;2022-08-01T02:01:08;2.37;;;2.17;;
3278;SDS011;1651;50.940;6.888;2022-08-01T02:03:36;2.53;;;1.77;;
3278;SDS011;1651;50.940;6.888;2022-08-01T02:06:03;2.80;;;2.00;;
3278;SDS011;1651;50.940;6.888;2022-08-01T02:08:29;2.67;;;2.47;;
3278;SDS011;1651;50.940;6.888;2022-08-01T02:10:56;3.30;;;2.30;;
3278;SDS011;1651;50.940;6.888;2022-08-01T02:13:42;2.67;;;2.20;;
3278;SDS011;1651;50.940;6.888;2022-08-01T02:16:08;2.20;;;2.00;;
3278;SDS011;1651;50.940;6.888;2022-08-01T02:18:38;2.53;;;2.03;;
3278;SDS011;1651;50.940;6.888;2022-08-01T02:21:05;3.00;;;2.20;;
3278;SDS011;1651;50.940;6.888;2022-08-01T02:23:34;2.20;;;1.80;;
3278;SDS011;1651;50.940;6.888;2022-08-01T02:26:03;2.50;;;1.80;;
3278;SDS011;1651;50.940;6.888;2022-08-01T02:28:35;3.87;;;2.83;;
3278;SDS011;1651;50.940;6.888;2022-08-01T02:31:02;2.93;;;2.13;;
3278;SDS011;1651;50.940;6.888;2022-08-01T02:33:34;3.77;;;2.57;;
3278;SDS011;1651;50.940;6.888;2022-08-01T02:36:02;2.93;;;2.00;;
3278;SDS011;1651;50.940;6.888;2022-08-01T02:38:28;4.67;;;3.07;;
3278;SDS011;1651;50.940;6.888;2022-08-01T02:40:57;2.93;;;2.30;;
3278;SDS011;1651;50.940;6.888;2022-08-01T02:43:24;2.97;;;2.50;;
3278;SDS011;1651;50.940;6.888;2022-08-01T02:45:52;3.60;;;2.03;;
3278;SDS011;1651;50.940;6.888;2022-08-01T02:48:19;2.20;;;2.00;;
3278;SDS011;1651;50.940;6.888;2022-08-01T02:50:47;2.60;;;2.40;;
3278;SDS011;1651;50.940;6.888;2022-08-01T02:53:14;2.47;;;2.07;;
3278;SDS011;1651;50.940;6.888;2022-08-01T02:55:40;2.83;;;2.33;;
3278;SDS011;1651;50.940;6.888;2022-08-01T02:58:08;2.23;;;2.00;;
3278;SDS011;1651;50.940;6.888;2022-08-01T03:00:35;3.90;;;3.60;;
3278;SDS011;1651;50.940;6.888;2022-08-01T03:03:01;3.27;;;2.50;;
3278;SDS011;1651;50.940;6.888;2022-08-01T03:05:29;5.37;;;2.10;;
3278;SDS011;1651;50.940;6.888;2022-08-01T03:07:57;3.23;;;2.13;;
3278;SDS011;1651;50.940;6.888;2022-08-01T03:10:25;3.40;;;2.27;;
3278;SDS011;1651;50.940;6.888;2022-08-01T03:12:52;3.60;;;2.87;;
3278;SDS011;1651;50.940;6.888;2022-08-01T03:15:18;5.20;;;2.23;;
3278;SDS011;1651;50.940;6.888;2022-08-01T03:17:45;3.40;;;2.53;;
3278;SDS011;1651;50.940;6.888;2022-08-01T03:20:14;3.70;;;3.23;;
3278;SDS011;1651;50.940;6.888;2022-08-01T03:22:40;4.20;;;2.60;;
3278;SDS011;1651;50.940;6.888;2022-08-01T03:25:09;3.23;;;2.03;;
3278;SDS011;1651;50.940;6.888;2022-08-01T03:27:36;2.80;;;2.50;;
3278;SDS011;1651;50.940;6.888;2022-08-01T03:30:03;3.00;;;2.63;;
3278;SDS011;1651;50.940;6.888;2022-08-01T03:32:30;5.33;;;2.37;;
3278;SDS011;1651;50.940;6.888;2022-08-01T03:34:57;5.17;;;3.10;;
3278;SDS011;1651;50.940;6.888;2022-08-01T03:37:24;3.30;;;2.90;;
3278;SDS011;1651;50.940;6.888;2022-08-01T03:39:55;3.23;;;2.70;;
3278;SDS011;1651;50.940;6.888;2022-08-01T03:42:25;3.50;;;2.73;;
3278;SDS011;1651;50.940;6.888;2022-08-01T03:44:54;3.80;;;2.83;;
3278;SDS011;1651;50.940;6.888;2022-08-01T03:47:24;4.70;;;2.70;;
3278;SDS011;1651;50.940;6.888;2022-08-01T03:49:51;3.53;;;3.23;;
3278;SDS011;1651;50.940;6.888;2022-08-01T03:52:18;5.03;;;3.23;;
3278;SDS011;1651;50.940;6.888;2022-08-01T03:54:46;3.10;;;2.80;;
3278;SDS011;1651;50.940;6.888;2022-08-01T03:57:13;4.90;;;3.57;;
3278;SDS011;1651;50.940;6.888;2022-08-01T03:59:40;5.30;;;3.03;;
3278;SDS011;1651;50.940;6.888;2022-08-01T04:02:07;4.90;;;3.40;;
3278;SDS011;1651;50.940;6.888;2022-08-01T04:04:33;4.27;;;3.60;;
3278;SDS011;1651;50.940;6.888;2022-08-01T04:06:59;4.03;;;3.03;;
3278;SDS011;1651;50.940;6.888;2022-08-01T04:09:31;4.07;;;3.70;;
3278;SDS011;1651;50.940;6.888;2022-08-01T04:12:00;5.20;;;4.10;;
3278;SDS011;1651;50.940;6.888;2022-08-01T04:14:27;10.87;;;4.13;;
3278;SDS011;1651;50.940;6.888;2022-08-01T04:16:53;4.40;;;4.00;;
3278;SDS011;1651;50.940;6.888;2022-08-01T04:19:19;6.03;;;3.40;;
3278;SDS011;1651;50.940;6.888;2022-08-01T04:21:45;3.97;;;3.33;;
3278;SDS011;1651;50.940;6.888;2022-08-01T04:24:12;6.07;;;4.13;;
3278;SDS011;1651;50.940;6.888;2022-08-01T04:26:40;5.17;;;3.87;;
3278;SDS011;1651;50.940;6.888;2022-08-01T04:29:07;6.03;;;4.20;;
3278;SDS011;1651;50.940;6.888;2022-08-01T04:31:33;5.10;;;3.70;;
3278;SDS011;1651;50.940;6.888;2022-08-01T04:34:01;4.73;;;3.40;;
3278;SDS011;1651;50.940;6.888;2022-08-01T04:36:28;4.53;;;3.37;;
3278;SDS011;1651;50.940;6.888;2022-08-01T04:38:58;4.03;;;3.37;;
3278;SDS011;1651;50.940;6.888;2022-08-01T04:41:25;5.17;;;3.73;;
3278;SDS011;1651;50.940;6.888;2022-08-01T04:43:52;5.60;;;4.07;;
3278;SDS011;1651;50.940;6.888;2022-08-01T04:46:19;5.53;;;4.03;;
3278;SDS011;1651;50.940;6.888;2022-08-01T04:48:46;5.90;;;4.73;;
3278;SDS011;1651;50.940;6.888;2022-08-01T04:51:13;4.33;;;3.90;;
3278;SDS011;1651;50.940;6.888;2022-08-01T04:53:40;8.67;;;4.50;;
3278;SDS011;1651;50.940;6.888;2022-08-01T04:56:06;4.17;;;3.77;;
3278;SDS011;1651;50.940;6.888;2022-08-01T04:58:32;5.83;;;4.00;;
3278;SDS011;1651;50.940;6.888;2022-08-01T05:00:58;4.53;;;4.07;;
3278;SDS011;1651;50.940;6.888;2022-08-01T05:03:24;5.47;;;4.67;;
3278;SDS011;1651;50.940;6.888;2022-08-01T05:05:50;4.73;;;4.20;;
3278;SDS011;1651;50.940;6.888;2022-08-01T05:08:16;6.37;;;4.10;;
3278;SDS011;1651;50.940;6.888;2022-08-01T05:10:42;8.83;;;4.70;;
3278;SDS011;1651;50.940;6.888;2022-08-01T05:13:08;6.27;;;4.17;;
3278;SDS011;1651;50.940;6.888;2022-08-01T05:15:35;5.40;;;4.60;;
3278;SDS011;1651;50.940;6.888;2022-08-01T05:18:04;6.17;;;5.00;;
3278;SDS011;1651;50.940;6.888;2022-08-01T05:20:30;7.23;;;4.30;;
3278;SDS011;1651;50.940;6.888;2022-08-01T05:22:56;4.23;;;3.83;;
3278;SDS011;1651;50.940;6.888;2022-08-01T05:25:22;5.43;;;4.20;;
3278;SDS011;1651;50.940;6.888;2022-08-01T05:27:49;6.27;;;4.40;;
3278;SDS011;1651;50.940;6.888;2022-08-01T05:30:18;5.30;;;4.77;;
3278;SDS011;1651;50.940;6.888;2022-08-01T05:32:44;7.47;;;5.50;;
3278;SDS011;1651;50.940;6.888;2022-08-01T05:35:10;11.73;;;5.83;;
3278;SDS011;1651;50.940;6.888;2022-08-01T05:37:36;7.50;;;6.20;;
3278;SDS011;1651;50.940;6.888;2022-08-01T05:40:02;8.83;;;6.00;;
3278;SDS011;1651;50.940;6.888;2022-08-01T05:42:28;9.10;;;6.00;;
3278;SDS011;1651;50.940;6.888;2022-08-01T05:44:54;6.87;;;6.10;;
3278;SDS011;1651;50.940;6.888;2022-08-01T05:47:20;6.37;;;5.57;;
3278;SDS011;1651;50.940;6.888;2022-08-01T05:49:46;7.67;;;6.50;;
3278;SDS011;1651;50.940;6.888;2022-08-01T05:52:12;6.80;;;5.13;;
3278;SDS011;1651;50.940;6.888;2022-08-01T05:54:39;7.27;;;6.43;;
3278;SDS011;1651;50.940;6.888;2022-08-01T05:57:05;10.87;;;6.60;;
3278;SDS011;1651;50.940;6.888;2022-08-01T05:59:31;9.60;;;7.20;;
3278;SDS011;1651;50.940;6.888;2022-08-01T06:01:58;8.60;;;7.30;;
3278;SDS011;1651;50.940;6.888;2022-08-01T06:04:24;10.10;;;7.00;;
3278;SDS011;1651;50.940;6.888;2022-08-01T06:06:51;9.60;;;7.27;;
3278;SDS011;1651;50.940;6.888;2022-08-01T06:09:17;9.10;;;7.70;;
3278;SDS011;1651;50.940;6.888;2022-08-01T06:11:43;10.13;;;7.50;;
3278;SDS011;1651;50.940;6.888;2022-08-01T06:14:09;7.37;;;6.20;;
3278;SDS011;1651;50.940;6.888;2022-08-01T06:16:35;10.20;;;7.63;;
3278;SDS011;1651;50.940;6.888;2022-08-01T06:19:01;8.17;;;7.13;;
3278;SDS011;1651;50.940;6.888;2022-08-01T06:21:27;9.80;;;6.97;;
3278;SDS011;1651;50.940;6.888;2022-08-01T06:23:54;10.00;;;6.77;;
3278;SDS011;1651;50.940;6.888;2022-08-01T06:26:20;12.00;;;6.63;;
3278;SDS011;1651;50.940;6.888;2022-08-01T06:28:46;10.93;;;7.57;;
3278;SDS011;1651;50.940;6.888;2022-08-01T06:31:12;8.23;;;6.30;;
3278;SDS011;1651;50.940;6.888;2022-08-01T06:33:39;11.93;;;8.93;;
3278;SDS011;1651;50.940;6.888;2022-08-01T06:36:05;8.67;;;6.50;;
3278;SDS011;1651;50.940;6.888;2022-08-01T06:38:31;9.37;;;6.93;;
3278;SDS011;1651;50.940;6.888;2022-08-01T06:40:57;12.37;;;6.70;;
3278;SDS011;1651;50.940;6.888;2022-08-01T06:43:23;9.33;;;6.67;;
3278;SDS011;1651;50.940;6.888;2022-08-01T06:45:49;9.70;;;6.63;;
3278;SDS011;1651;50.940;6.888;2022-08-01T06:48:15;9.77;;;6.37;;
3278;SDS011;1651;50.940;6.888;2022-08-01T06:50:42;7.77;;;6.73;;
3278;SDS011;1651;50.940;6.888;2022-08-01T06:53:08;10.97;;;7.30;;
3278;SDS011;1651;50.940;6.888;2022-08-01T06:55:34;11.43;;;6.90;;
3278;SDS011;1651;50.940;6.888;2022-08-01T06:58:00;8.47;;;6.50;;
3278;SDS011;1651;50.940;6.888;2022-08-01T07:00:26;7.27;;;6.30;;
3278;SDS011;1651;50.940;6.888;2022-08-01T07:02:53;7.93;;;7.07;;
3278;SDS011;1651;50.940;6.888;2022-08-01T07:05:19;6.70;;;6.10;;
3278;SDS011;1651;50.940;6.888;2022-08-01T07:07:45;11.27;;;6.70;;
3278;SDS011;1651;50.940;6.888;2022-08-01T07:10:11;9.27;;;7.60;;
3278;SDS011;1651;50.940;6.888;2022-08-01T07:12:37;12.60;;;8.00;;
3278;SDS011;1651;50.940;6.888;2022-08-01T07:15:05;14.10;;;7.53;;
3278;SDS011;1651;50.940;6.888;2022-08-01T07:17:35;8.23;;;7.43;;
3278;SDS011;1651;50.940;6.888;2022-08-01T07:20:02;8.80;;;7.97;;
3278;SDS011;1651;50.940;6.888;2022-08-01T07:22:28;7.13;;;6.43;;
3278;SDS011;1651;50.940;6.888;2022-08-01T07:24:54;7.63;;;6.90;;
3278;SDS011;1651;50.940;6.888;2022-08-01T07:27:20;9.10;;;7.83;;
3278;SDS011;1651;50.940;6.888;2022-08-01T07:29:46;10.47;;;8.77;;
3278;SDS011;1651;50.940;6.888;2022-08-01T07:32:12;8.63;;;7.17;;
3278;SDS011;1651;50.940;6.888;2022-08-01T07:34:41;9.33;;;7.33;;
3278;SDS011;1651;50.940;6.888;2022-08-01T07:37:07;10.03;;;8.00;;
3278;SDS011;1651;50.940;6.888;2022-08-01T07:39:33;9.60;;;7.73;;
3278;SDS011;1651;50.940;6.888;2022-08-01T07:41:59;8.83;;;7.40;;
3278;SDS011;1651;50.940;6.888;2022-08-01T07:44:25;8.03;;;7.23;;
3278;SDS011;1651;50.940;6.888;2022-08-01T07:46:51;7.93;;;6.33;;
3278;SDS011;1651;50.940;6.888;2022-08-01T07:49:17;8.07;;;6.63;;
3278;SDS011;1651;50.940;6.888;2022-08-01T07:51:43;6.43;;;5.83;;
3278;SDS011;1651;50.940;6.888;2022-08-01T07:54:09;23.10;;;16.00;;
3278;SDS011;1651;50.940;6.888;2022-08-01T07:56:35;8.23;;;6.23;;
3278;SDS011;1651;50.940;6.888;2022-08-01T07:59:01;6.20;;;5.40;;
3278;SDS011;1651;50.940;6.888;2022-08-01T08:01:27;6.30;;;5.43;;
3278;SDS011;1651;50.940;6.888;2022-08-01T08:03:53;5.63;;;5.07;;
3278;SDS011;1651;50.940;6.888;2022-08-01T08:06:19;7.23;;;6.10;;
3278;SDS011;1651;50.940;6.888;2022-08-01T08:08:45;6.30;;;4.50;;
3278;SDS011;1651;50.940;6.888;2022-08-01T08:11:11;6.73;;;5.80;;
3278;SDS011;1651;50.940;6.888;2022-08-01T08:13:37;6.27;;;5.40;;
3278;SDS011;1651;50.940;6.888;2022-08-01T08:16:03;6.87;;;5.40;;
3278;SDS011;1651;50.940;6.888;2022-08-01T08:18:29;5.70;;;4.73;;
3278;SDS011;1651;50.940;6.888;2022-08-01T08:20:55;10.17;;;5.50;;
3278;SDS011;1651;50.940;6.888;2022-08-01T08:23:22;6.53;;;5.93;;
3278;SDS011;1651;50.940;6.888;2022-08-01T08:26:07;5.00;;;4.50;;
3278;SDS011;1651;50.940;6.888;2022-08-01T08:28:33;6.73;;;5.20;;
3278;SDS011;1651;50.940;6.888;2022-08-01T08:30:59;5.87;;;5.37;;
3278;SDS011;1651;50.940;6.888;2022-08-01T08:33:26;4.87;;;4.43;;
3278;SDS011;1651;50.940;6.888;2022-08-01T08:35:54;6.40;;;5.60;;
3278;SDS011;1651;50.940;6.888;2022-08-01T08:38:20;6.97;;;5.50;;
3278;SDS011;1651;50.940;6.888;2022-08-01T08:40:46;8.03;;;4.77;;
3278;SDS011;1651;50.940;6.888;2022-08-01T08:43:12;8.00;;;5.60;;
3278;SDS011;1651;50.940;6.888;2022-08-01T08:45:39;5.53;;;4.97;;
3278;SDS011;1651;50.940;6.888;2022-08-01T08:48:06;4.50;;;4.20;;
3278;SDS011;1651;50.940;6.888;2022-08-01T08:50:32;7.70;;;5.00;;
3278;SDS011;1651;50.940;6.888;2022-08-01T08:52:58;5.90;;;5.30;;
3278;SDS011;1651;50.940;6.888;2022-08-01T08:55:26;5.10;;;4.60;;
3278;SDS011;1651;50.940;6.888;2022-08-01T08:57:53;5.57;;;5.07;;
3278;SDS011;1651;50.940;6.888;2022-08-01T09:00:19;6.00;;;5.10;;
3278;SDS011;1651;50.940;6.888;2022-08-01T09:02:47;5.10;;;4.47;;
3278;SDS011;1651;50.940;6.888;2022-08-01T09:05:14;5.33;;;4.83;;
3278;SDS011;1651;50.940;6.888;2022-08-01T09:07:41;9.50;;;5.27;;
3278;SDS011;1651;50.940;6.888;2022-08-01T09:10:07;4.97;;;4.47;;
3278;SDS011;1651;50.940;6.888;2022-08-01T09:12:34;4.80;;;4.40;;
3278;SDS011;1651;50.940;6.888;2022-08-01T09:15:00;5.03;;;4.60;;
3278;SDS011;1651;50.940;6.888;2022-08-01T09:17:26;4.90;;;4.47;;
3278;SDS011;1651;50.940;6.888;2022-08-01T09:19:53;7.40;;;5.37;;
3278;SDS011;1651;50.940;6.888;2022-08-01T09:22:20;5.60;;;5.10;;
3278;SDS011;1651;50.940;6.888;2022-08-01T09:24:58;6.97;;;6.03;;
3278;SDS011;1651;50.940;6.888;2022-08-01T09:27:25;4.90;;;4.47;;
3278;SDS011;1651;50.940;6.888;2022-08-01T09:29:51;6.10;;;5.13;;
3278;SDS011;1651;50.940;6.888;2022-08-01T09:32:18;5.20;;;4.70;;
3278;SDS011;1651;50.940;6.888;2022-08-01T09:34:44;9.83;;;5.00;;
3278;SDS011;1651;50.940;6.888;2022-08-01T09:37:11;5.73;;;4.97;;
3278;SDS011;1651;50.940;6.888;2022-08-01T09:39:39;5.83;;;4.80;;
3278;SDS011;1651;50.940;6.888;2022-08-01T09:42:21;6.00;;;4.57;;
3278;SDS011;1651;50.940;6.888;2022-08-01T09:44:47;4.37;;;3.97;;
3278;SDS011;1651;50.940;6.888;2022-08-01T09:47:14;4.50;;;4.03;;
3278;SDS011;1651;50.940;6.888;2022-08-01T09:49:41;4.43;;;4.03;;
3278;SDS011;1651;50.940;6.888;2022-08-01T09:52:14;5.00;;;4.60;;
3278;SDS011;1651;50.940;6.888;2022-08-01T09:54:41;4.83;;;4.07;;
3278;SDS011;1651;50.940;6.888;2022-08-01T09:57:16;6.83;;;4.70;;
3278;SDS011;1651;50.940;6.888;2022-08-01T09:59:43;4.63;;;3.90;;
3278;SDS011;1651;50.940;6.888;2022-08-01T10:02:10;4.47;;;4.07;;
3278;SDS011;1651;50.940;6.888;2022-08-01T10:04:49;3.97;;;3.57;;
3278;SDS011;1651;50.940;6.888;2022-08-01T10:07:16;4.30;;;3.70;;
3278;SDS011;1651;50.940;6.888;2022-08-01T10:09:42;4.90;;;4.40;;
3278;SDS011;1651;50.940;6.888;2022-08-01T10:12:09;4.10;;;3.70;;
3278;SDS011;1651;50.940;6.888;2022-08-01T10:14:35;5.40;;;4.90;;
3278;SDS011;1651;50.940;6.888;2022-08-01T10:17:01;5.20;;;4.70;;
3278;SDS011;1651;50.940;6.888;2022-08-01T10:19:28;4.73;;;4.33;;
3278;SDS011;1651;50.940;6.888;2022-08-01T10:21:55;5.60;;;5.10;;
3278;SDS011;1651;50.940;6.888;2022-08-01T10:24:22;4.60;;;4.20;;
3278;SDS011;1651;50.940;6.888;2022-08-01T10:26:50;4.60;;;4.17;;
3278;SDS011;1651;50.940;6.888;2022-08-01T10:29:17;4.63;;;4.13;;
3278;SDS011;1651;50.940;6.888;2022-08-01T10:31:44;5.70;;;4.10;;
3278;SDS011;1651;50.940;6.888;2022-08-01T10:34:10;6.90;;;5.97;;
3278;SDS011;1651;50.940;6.888;2022-08-01T10:36:36;5.03;;;4.60;;
3278;SDS011;1651;50.940;6.888;2022-08-01T10:39:04;4.87;;;4.47;;
3278;SDS011;1651;50.940;6.888;2022-08-01T10:41:32;5.00;;;4.60;;
3278;SDS011;1651;50.940;6.888;2022-08-01T10:44:00;4.53;;;4.10;;
3278;SDS011;1651;50.940;6.888;2022-08-01T10:46:27;5.13;;;3.97;;
3278;SDS011;1651;50.940;6.888;2022-08-01T10:51:25;3.77;;;3.47;;
3278;SDS011;1651;50.940;6.888;2022-08-01T10:53:52;4.27;;;3.60;;
3278;SDS011;1651;50.940;6.888;2022-08-01T10:56:18;3.93;;;3.53;;
3278;SDS011;1651;50.940;6.888;2022-08-01T10:58:45;3.30;;;3.00;;
3278;SDS011;1651;50.940;6.888;2022-08-01T11:01:13;4.40;;;4.00;;
3278;SDS011;1651;50.940;6.888;2022-08-01T11:03:39;6.50;;;3.50;;
3278;SDS011;1651;50.940;6.888;2022-08-01T11:06:05;3.30;;;3.00;;
3278;SDS011;1651;50.940;6.888;2022-08-01T11:08:31;4.03;;;3.63;;
3278;SDS011;1651;50.940;6.888;2022-08-01T11:11:02;4.37;;;3.37;;
3278;SDS011;1651;50.940;6.888;2022-08-01T11:16:27;5.87;;;3.30;;
3278;SDS011;1651;50.940;6.888;2022-08-01T11:18:54;3.23;;;3.00;;
3278;SDS011;1651;50.940;6.888;2022-08-01T11:21:20;6.20;;;4.37;;
3278;SDS011;1651;50.940;6.888;2022-08-01T11:23:50;3.30;;;3.00;;
3278;SDS011;1651;50.940;6.888;2022-08-01T11:26:19;4.13;;;3.80;;
3278;SDS011;1651;50.940;6.888;2022-08-01T11:28:46;4.60;;;4.17;;
3278;SDS011;1651;50.940;6.888;2022-08-01T11:31:32;4.00;;;3.70;;
3278;SDS011;1651;50.940;6.888;2022-08-01T11:33:59;4.00;;;3.60;;
3278;SDS011;1651;50.940;6.888;2022-08-01T11:36:25;4.20;;;3.30;;
3278;SDS011;1651;50.940;6.888;2022-08-01T11:43:56;5.33;;;3.90;;
3278;SDS011;1651;50.940;6.888;2022-08-01T11:52:06;4.17;;;3.50;;
3278;SDS011;1651;50.940;6.888;2022-08-01T11:54:41;3.47;;;3.17;;
3278;SDS011;1651;50.940;6.888;2022-08-01T11:57:29;7.50;;;3.67;;
3278;SDS011;1651;50.940;6.888;2022-08-01T11:59:57;2.47;;;2.17;;
3278;SDS011;1651;50.940;6.888;2022-08-01T12:02:25;3.33;;;3.03;;
3278;SDS011;1651;50.940;6.888;2022-08-01T12:07:20;2.90;;;2.70;;
3278;SDS011;1651;50.940;6.888;2022-08-01T12:09:47;3.50;;;2.87;;
3278;SDS011;1651;50.940;6.888;2022-08-01T12:12:16;3.40;;;3.10;;
3278;SDS011;1651;50.940;6.888;2022-08-01T12:14:43;3.30;;;3.00;;
3278;SDS011;1651;50.940;6.888;2022-08-01T12:17:10;4.17;;;2.87;;
3278;SDS011;1651;50.940;6.888;2022-08-01T12:19:35;3.60;;;3.30;;
3278;SDS011;1651;50.940;6.888;2022-08-01T12:22:12;3.77;;;3.47;;
3278;SDS011;1651;50.940;6.888;2022-08-01T12:24:39;6.10;;;3.60;;
3278;SDS011;1651;50.940;6.888;2022-08-01T12:27:07;3.63;;;3.00;;
3278;SDS011;1651;50.940;6.888;2022-08-01T12:29:37;4.27;;;3.20;;
3278;SDS011;1651;50.940;6.888;2022-08-01T12:32:04;3.30;;;3.00;;
3278;SDS011;1651;50.940;6.888;2022-08-01T12:34:30;3.77;;;3.30;;
3278;SDS011;1651;50.940;6.888;2022-08-01T12:36:59;5.30;;;3.80;;
3278;SDS011;1651;50.940;6.888;2022-08-01T12:39:29;3.90;;;3.60;;
3278;SDS011;1651;50.940;6.888;2022-08-01T12:41:55;3.60;;;3.10;;
3278;SDS011;1651;50.940;6.888;2022-08-01T12:44:21;4.07;;;3.00;;
3278;SDS011;1651;50.940;6.888;2022-08-01T12:46:47;2.70;;;2.50;;
3278;SDS011;1651;50.940;6.888;2022-08-01T12:49:13;4.13;;;3.10;;
3278;SDS011;1651;50.940;6.888;2022-08-01T12:51:40;8.30;;;3.33;;
3278;SDS011;1651;50.940;6.888;2022-08-01T12:54:06;2.80;;;2.60;;
3278;SDS011;1651;50.940;6.888;2022-08-01T12:56:35;5.53;;;3.10;;
3278;SDS011;1651;50.940;6.888;2022-08-01T12:59:01;4.27;;;3.30;;
3278;SDS011;1651;50.940;6.888;2022-08-01T13:01:27;2.63;;;2.40;;
3278;SDS011;1651;50.940;6.888;2022-08-01T13:03:58;2.30;;;2.10;;
3278;SDS011;1651;50.940;6.888;2022-08-01T13:06:27;2.30;;;2.10;;
3278;SDS011;1651;50.940;6.888;2022-08-01T13:08:54;6.87;;;2.90;;
3278;SDS011;1651;50.940;6.888;2022-08-01T13:11:20;4.90;;;2.20;;
3278;SDS011;1651;50.940;6.888;2022-08-01T13:13:47;2.97;;;2.00;;
3278;SDS011;1651;50.940;6.888;2022-08-01T13:16:14;5.63;;;2.17;;
3278;SDS011;1651;50.940;6.888;2022-08-01T13:18:40;3.03;;;2.13;;
3278;SDS011;1651;50.940;6.888;2022-08-01T13:21:07;3.13;;;1.97;;
3278;SDS011;1651;50.940;6.888;2022-08-01T13:23:34;2.07;;;1.87;;
3278;SDS011;1651;50.940;6.888;2022-08-01T13:26:00;2.07;;;1.70;;
3278;SDS011;1651;50.940;6.888;2022-08-01T13:28:26;1.97;;;1.83;;
3278;SDS011;1651;50.940;6.888;2022-08-01T13:33:18;2.07;;;1.40;;
3278;SDS011;1651;50.940;6.888;2022-08-01T13:35:44;2.90;;;1.50;;
3278;SDS011;1651;50.940;6.888;2022-08-01T13:38:12;1.93;;;1.60;;
3278;SDS011;1651;50.940;6.888;2022-08-01T13:40:38;2.13;;;1.70;;
3278;SDS011;1651;50.940;6.888;2022-08-01T13:43:04;1.67;;;1.57;;
3278;SDS011;1651;50.940;6.888;2022-08-01T13:45:31;2.60;;;1.33;;
3278;SDS011;1651;50.940;6.888;2022-08-01T13:47:57;3.80;;;1.90;;
3278;SDS011;1651;50.940;6.888;2022-08-01T13:50:23;1.70;;;1.50;;
3278;SDS011;1651;50.940;6.888;2022-08-01T13:52:49;5.40;;;2.03;;
3278;SDS011;1651;50.940;6.888;2022-08-01T13:55:15;6.20;;;1.80;;
3278;SDS011;1651;50.940;6.888;2022-08-01T13:57:41;1.93;;;1.40;;
3278;SDS011;1651;50.940;6.888;2022-08-01T14:00:08;2.27;;;1.80;;
3278;SDS011;1651;50.940;6.888;2022-08-01T14:02:34;1.70;;;1.60;;
3278;SDS011;1651;50.940;6.888;2022-08-01T14:05:00;5.13;;;1.70;;
3278;SDS011;1651;50.940;6.888;2022-08-01T14:07:26;3.10;;;1.70;;
3278;SDS011;1651;50.940;6.888;2022-08-01T14:09:52;1.60;;;1.50;;
3278;SDS011;1651;50.940;6.888;2022-08-01T14:12:19;1.97;;;1.60;;
3278;SDS011;1651;50.940;6.888;2022-08-01T14:14:45;2.50;;;1.70;;
3278;SDS011;1651;50.940;6.888;2022-08-01T14:17:11;1.60;;;1.50;;
3278;SDS011;1651;50.940;6.888;2022-08-01T14:19:37;1.60;;;1.50;;
3278;SDS011;1651;50.940;6.888;2022-08-01T14:22:03;2.20;;;1.67;;
3278;SDS011;1651;50.940;6.888;2022-08-01T14:24:30;2.27;;;2.07;;
3278;SDS011;1651;50.940;6.888;2022-08-01T14:26:56;1.87;;;1.60;;
3278;SDS011;1651;50.940;6.888;2022-08-01T14:29:23;1.43;;;1.33;;
3278;SDS011;1651;50.940;6.888;2022-08-01T14:31:49;2.13;;;1.60;;
3278;SDS011;1651;50.940;6.888;2022-08-01T14:34:15;2.27;;;1.50;;
3278;SDS011;1651;50.940;6.888;2022-08-01T14:36:41;5.53;;;1.40;;
3278;SDS011;1651;50.940;6.888;2022-08-01T14:39:07;1.83;;;1.43;;
3278;SDS011;1651;50.940;6.888;2022-08-01T14:41:34;1.50;;;1.40;;
3278;SDS011;1651;50.940;6.888;2022-08-01T14:44:00;2.73;;;1.50;;
3278;SDS011;1651;50.940;6.888;2022-08-01T14:48:58;1.70;;;1.60;;
3278;SDS011;1651;50.940;6.888;2022-08-01T14:51:25;6.53;;;1.70;;
3278;SDS011;1651;50.940;6.888;2022-08-01T14:53:51;4.73;;;2.03;;
3278;SDS011;1651;50.940;6.888;2022-08-01T14:56:18;4.50;;;1.87;;
3278;SDS011;1651;50.940;6.888;2022-08-01T14:58:44;1.70;;;1.37;;
3278;SDS011;1651;50.940;6.888;2022-08-01T15:01:10;1.33;;;1.23;;
3278;SDS011;1651;50.940;6.888;2022-08-01T15:03:36;2.40;;;1.40;;
3278;SDS011;1651;50.940;6.888;2022-08-01T15:06:02;1.93;;;1.53;;
3278;SDS011;1651;50.940;6.888;2022-08-01T15:08:29;1.80;;;1.70;;
3278;SDS011;1651;50.940;6.888;2022-08-01T15:10:56;1.90;;;1.67;;
3278;SDS011;1651;50.940;6.888;2022-08-01T15:13:23;2.30;;;1.77;;
3278;SDS011;1651;50.940;6.888;2022-08-01T15:15:49;1.93;;;1.63;;
3278;SDS011;1651;50.940;6.888;2022-08-01T15:18:15;4.13;;;1.90;;
3278;SDS011;1651;50.940;6.888;2022-08-01T15:20:41;1.73;;;1.63;;
3278;SDS011;1651;50.940;6.888;2022-08-01T15:23:08;2.00;;;1.80;;
3278;SDS011;1651;50.940;6.888;2022-08-01T15:25:34;8.30;;;1.93;;
3278;SDS011;1651;50.940;6.888;2022-08-01T15:28:00;2.00;;;1.83;;
3278;SDS011;1651;50.940;6.888;2022-08-01T15:30:26;1.93;;;1.83;;
3278;SDS011;1651;50.940;6.888;2022-08-01T15:32:52;2.27;;;2.07;;
3278;SDS011;1651;50.940;6.888;2022-08-01T15:35:19;2.83;;;1.60;;
3278;SDS011;1651;50.940;6.888;2022-08-01T15:37:45;5.60;;;1.90;;
3278;SDS011;1651;50.940;6.888;2022-08-01T15:40:12;3.30;;;1.90;;
3278;SDS011;1651;50.940;6.888;2022-08-01T15:42:38;1.97;;;1.57;;
3278;SDS011;1651;50.940;6.888;2022-08-01T15:45:05;2.40;;;1.83;;
3278;SDS011;1651;50.940;6.888;2022-08-01T15:47:31;8.27;;;1.77;;